Terminal Aerodrome Forecast
Issued by NWS

Home | Current Version | Previous Version | Text Only | Print | Product List | Glossary On
Versions: 1 2 3 4 5 6 7 8 9 10 11 12 13 14 15 16
000
FTUS46 KEKA 141146
TAFCEC
TAF
KCEC 141146Z 1412/1512 01004KT P6SM SKC
     FM141800 33008KT P6SM SCT300
     FM150300 16006KT P6SM FEW300
     FM150800 35005KT P6SM SCT250=

USA.gov is the U.S. government's official web portal to all federal, state and local government web resources and services.